Airport ID:9NM9
Update Time (UTC):21/02/2020 12:41
Wind Speed (Knots):6
Wind Direction (Magnetic):320
Temperature (°C):0.9
Dew Point (°C):-1
Humidity (%):86.5
Altimeter (inHg):30.45
Density Altitude (Feet):
Visibility (Miles):10
Clouds (Hundreds of feet):OVC039
Present Weather:
METAR:METAR 9NM9 211240Z AUTO 33006KT 10SM OVC039 01/M01 A3045 RMK AO2

The data displayed is for advisory purposes only and is not to be used for flight planning or operations.

This page is not automatically refreshed. Reload the page to see current data.